createdAt,value
2017-07-30T00:00:25.827Z,21.27
2017-07-30T00:01:25.823Z,21.28
2017-07-30T00:02:25.786Z,21.27
2017-07-30T00:03:25.776Z,21.24
2017-07-30T00:04:25.749Z,21.24
2017-07-30T00:05:25.784Z,21.21
2017-07-30T00:06:25.711Z,21.22
2017-07-30T00:07:25.691Z,21.11
2017-07-30T00:08:25.729Z,21.27
2017-07-30T00:09:25.355Z,21.26
2017-07-30T00:10:25.637Z,21.26
2017-07-30T00:11:25.611Z,21.26
2017-07-30T00:12:25.602Z,21.18
2017-07-30T00:13:25.584Z,21.26
2017-07-30T00:14:25.572Z,21.21
2017-07-30T00:15:25.537Z,21.26
2017-07-30T00:16:25.523Z,21.22
2017-07-30T00:17:25.509Z,21.21
2017-07-30T00:18:25.542Z,21.28
2017-07-30T00:19:25.472Z,21.26
2017-07-30T00:21:25.128Z,21.27
2017-07-30T00:22:25.116Z,21.26
2017-07-30T00:23:25.396Z,21.33
2017-07-30T00:24:25.377Z,21.31
2017-07-30T00:25:25.403Z,21.28
2017-07-30T00:26:25.334Z,21.28
2017-07-30T00:27:25.318Z,21.19
2017-07-30T00:28:25.289Z,21.26
2017-07-30T00:29:24.983Z,21.33
2017-07-30T00:30:25.252Z,21.31
2017-07-30T00:31:25.234Z,21.43
2017-07-30T00:32:24.925Z,21.38
2017-07-30T00:33:25.195Z,21.38
2017-07-30T00:34:25.183Z,21.37
2017-07-30T00:35:25.169Z,21.51
2017-07-30T00:36:25.155Z,21.53
2017-07-30T00:37:25.133Z,21.48
2017-07-30T00:38:25.116Z,21.49
2017-07-30T00:39:25.086Z,21.51
2017-07-30T00:40:25.071Z,21.53
2017-07-30T00:41:25.051Z,21.58
2017-07-30T00:42:25.340Z,21.7
2017-07-30T00:43:25.067Z,21.64
2017-07-30T00:44:24.992Z,21.67
2017-07-30T00:45:25.009Z,21.63
2017-07-30T00:46:24.961Z,21.49
2017-07-30T00:47:24.937Z,21.24
2017-07-30T00:48:24.917Z,21.12
2017-07-30T00:49:24.907Z,21.13
2017-07-30T00:50:24.881Z,21.01
2017-07-30T00:51:24.921Z,20.98
2017-07-30T00:52:24.847Z,20.91
2017-07-30T00:53:24.824Z,20.85
2017-07-30T00:54:24.803Z,20.93
2017-07-30T00:55:24.788Z,20.91
2017-07-30T00:56:24.769Z,20.88
2017-07-30T00:57:24.744Z,20.87
2017-07-30T00:58:24.730Z,20.87
2017-07-30T00:59:24.714Z,20.85
2017-07-30T01:00:24.683Z,20.76
2017-07-30T01:01:24.670Z,20.76
2017-07-30T01:02:24.652Z,20.73
2017-07-30T01:03:24.635Z,20.76
2017-07-30T01:04:24.618Z,20.76
2017-07-30T01:05:24.593Z,20.72
2017-07-30T01:06:24.576Z,20.76
2017-07-30T01:07:24.558Z,20.75
2017-07-30T01:08:24.531Z,20.79
2017-07-30T01:09:24.530Z,20.72
2017-07-30T01:10:24.192Z,20.78
2017-07-30T01:11:24.482Z,20.76
2017-07-30T01:12:24.458Z,20.76
2017-07-30T01:13:24.446Z,20.78
2017-07-30T01:14:24.432Z,20.76
2017-07-30T01:15:24.455Z,20.78
2017-07-30T01:16:24.381Z,20.72
2017-07-30T01:17:24.418Z,20.75
2017-07-30T01:18:24.342Z,20.75
2017-07-30T01:19:24.318Z,20.75
2017-07-30T01:20:24.303Z,20.75
2017-07-30T01:21:24.293Z,20.75
2017-07-30T01:22:24.264Z,20.76
2017-07-30T01:23:24.243Z,20.79
2017-07-30T01:24:24.231Z,20.76
2017-07-30T01:25:24.256Z,20.79
2017-07-30T01:26:23.891Z,20.76
2017-07-30T01:27:24.184Z,20.63
2017-07-30T01:28:24.141Z,20.66
2017-07-30T01:29:24.137Z,20.69
2017-07-30T01:30:24.106Z,20.6
2017-07-30T01:31:24.089Z,20.6
2017-07-30T01:32:23.764Z,20.61
2017-07-30T01:33:24.060Z,20.56
2017-07-30T01:34:24.083Z,20.57
2017-07-30T01:35:24.112Z,20.56
2017-07-30T01:36:23.991Z,20.48
2017-07-30T01:37:23.979Z,20.5
2017-07-30T01:38:23.961Z,20.46
2017-07-30T01:39:23.943Z,20.46
2017-07-30T01:40:24.024Z,20.48
2017-07-30T01:41:23.895Z,20.42
2017-07-30T01:42:23.880Z,20.33
2017-07-30T01:43:23.856Z,20.35
2017-07-30T01:44:23.844Z,20.34
2017-07-30T01:45:23.823Z,20.3
2017-07-30T01:46:23.804Z,20.37
2017-07-30T01:47:23.789Z,20.34
2017-07-30T01:48:23.769Z,20.3
2017-07-30T01:49:23.748Z,20.37
2017-07-30T01:50:23.733Z,20.34
2017-07-30T01:51:23.711Z,20.38
2017-07-30T01:52:23.682Z,20.34
2017-07-30T01:53:23.718Z,20.42
2017-07-30T01:54:23.647Z,20.33
2017-07-30T01:55:23.634Z,20.3
2017-07-30T01:56:23.609Z,20.35
2017-07-30T01:57:23.597Z,20.35
2017-07-30T01:58:23.574Z,20.41
2017-07-30T01:59:23.557Z,20.41
2017-07-30T02:00:23.543Z,20.44
2017-07-30T02:01:23.510Z,20.38
2017-07-30T02:02:23.500Z,20.35
2017-07-30T02:03:23.480Z,20.4
2017-07-30T02:04:23.454Z,20.44
2017-07-30T02:05:23.468Z,20.41
2017-07-30T02:06:23.416Z,20.41
2017-07-30T02:07:23.095Z,20.41
2017-07-30T02:08:23.380Z,20.4
2017-07-30T02:09:23.359Z,20.38
2017-07-30T02:10:23.334Z,20.4
2017-07-30T02:11:23.330Z,20.35
2017-07-30T02:12:23.305Z,20.46
2017-07-30T02:13:23.281Z,20.37
2017-07-30T02:14:23.262Z,20.3
2017-07-30T02:15:23.248Z,20.44
2017-07-30T02:16:23.230Z,20.35
2017-07-30T02:17:23.207Z,20.31
2017-07-30T02:18:23.203Z,20.35
2017-07-30T02:19:23.170Z,20.37
2017-07-30T02:20:23.151Z,20.35
2017-07-30T02:21:23.128Z,20.34
2017-07-30T02:22:23.168Z,20.42
2017-07-30T02:23:22.790Z,20.37
2017-07-30T02:24:23.076Z,20.4
2017-07-30T02:25:23.053Z,20.33
2017-07-30T02:26:23.040Z,20.34
2017-07-30T02:27:23.067Z,20.33
2017-07-30T02:28:22.993Z,20.41
2017-07-30T02:29:22.975Z,20.38
2017-07-30T02:30:22.966Z,20.46
2017-07-30T02:31:22.958Z,20.42
2017-07-30T02:32:22.921Z,20.46
2017-07-30T02:33:22.907Z,20.34
2017-07-30T02:34:22.930Z,20.44
2017-07-30T02:35:22.919Z,20.5
2017-07-30T02:36:22.534Z,20.5
2017-07-30T02:37:22.828Z,20.46
2017-07-30T02:38:22.808Z,20.5
2017-07-30T02:39:22.780Z,20.53
2017-07-30T02:40:22.763Z,20.51
2017-07-30T02:41:22.744Z,20.5
2017-07-30T02:42:22.733Z,20.51
2017-07-30T02:43:22.714Z,20.46
2017-07-30T02:44:22.688Z,20.53
2017-07-30T02:45:22.663Z,20.53
2017-07-30T02:46:22.652Z,20.46
2017-07-30T02:47:22.626Z,20.53
2017-07-30T02:48:22.605Z,20.46
2017-07-30T02:49:22.651Z,20.41
2017-07-30T02:50:22.577Z,20.44
2017-07-30T02:51:22.555Z,20.51
2017-07-30T02:52:22.537Z,20.54
2017-07-30T02:53:22.511Z,20.53
2017-07-30T02:54:22.494Z,20.51
2017-07-30T02:55:22.722Z,20.44
2017-07-30T02:56:22.452Z,20.53
2017-07-30T02:57:22.436Z,20.5
2017-07-30T02:58:22.424Z,20.46
2017-07-30T02:59:22.402Z,20.46
2017-07-30T03:00:22.373Z,20.5
2017-07-30T03:01:22.358Z,20.51
2017-07-30T03:02:22.351Z,20.56
2017-07-30T03:03:22.318Z,20.61
2017-07-30T03:04:22.311Z,20.56
2017-07-30T03:05:22.286Z,20.61
2017-07-30T03:06:22.266Z,20.64
2017-07-30T03:07:22.242Z,20.69
2017-07-30T03:08:22.225Z,20.68
2017-07-30T03:09:22.199Z,20.68
2017-07-30T03:10:22.183Z,20.66
2017-07-30T03:11:22.165Z,20.64
2017-07-30T03:12:22.347Z,20.63
2017-07-30T03:13:22.122Z,20.63
2017-07-30T03:14:22.107Z,20.68
2017-07-30T03:15:22.090Z,20.76
2017-07-30T03:16:22.082Z,20.66
2017-07-30T03:17:22.052Z,20.66
2017-07-30T03:18:22.034Z,20.64
2017-07-30T03:19:22.011Z,20.63
2017-07-30T03:20:21.992Z,20.66
2017-07-30T03:21:21.977Z,20.72
2017-07-30T03:22:21.957Z,20.66
2017-07-30T03:23:21.932Z,20.6
2017-07-30T03:24:22.130Z,20.63
2017-07-30T03:25:21.899Z,20.61
2017-07-30T03:26:21.879Z,20.61
2017-07-30T03:27:21.855Z,20.61
2017-07-30T03:28:21.836Z,20.57
2017-07-30T03:29:21.828Z,20.58
2017-07-30T03:30:21.801Z,20.51
2017-07-30T03:31:22.041Z,20.44
2017-07-30T03:32:21.762Z,20.53
2017-07-30T03:33:21.747Z,20.53
2017-07-30T03:34:21.637Z,20.54
2017-07-30T03:35:21.700Z,20.46
2017-07-30T03:36:21.682Z,20.46
2017-07-30T03:37:21.662Z,20.5
2017-07-30T03:38:21.648Z,20.5
2017-07-30T03:39:21.622Z,20.5
2017-07-30T03:40:21.609Z,20.5
2017-07-30T03:41:21.587Z,20.46
2017-07-30T03:42:21.563Z,20.51
2017-07-30T03:43:36.158Z,20.53
2017-07-30T03:44:21.533Z,20.48
2017-07-30T03:45:21.520Z,20.53
2017-07-30T03:46:21.495Z,20.56
2017-07-30T03:47:21.472Z,20.48
2017-07-30T03:48:21.454Z,20.63
2017-07-30T03:49:21.434Z,20.53
2017-07-30T03:50:21.416Z,20.63
2017-07-30T03:51:21.397Z,20.66
2017-07-30T03:52:21.375Z,20.68
2017-07-30T03:53:21.360Z,20.66
2017-07-30T03:54:21.339Z,20.66
2017-07-30T03:55:21.416Z,20.66
2017-07-30T03:56:21.307Z,20.71
2017-07-30T03:57:20.983Z,20.75
2017-07-30T03:58:21.263Z,20.72
2017-07-30T03:59:21.247Z,20.71
2017-07-30T04:00:21.221Z,20.75
2017-07-30T04:01:21.204Z,20.78
2017-07-30T04:02:21.194Z,20.71
2017-07-30T04:03:21.168Z,20.72
2017-07-30T04:04:20.845Z,20.71
2017-07-30T04:05:21.126Z,20.75
2017-07-30T04:06:21.104Z,20.85
2017-07-30T04:07:21.183Z,20.88
2017-07-30T04:08:21.074Z,20.82
2017-07-30T04:09:21.047Z,20.87
2017-07-30T04:10:21.032Z,20.82
2017-07-30T04:11:21.024Z,20.85
2017-07-30T04:12:20.988Z,20.81
2017-07-30T04:13:20.970Z,20.87
2017-07-30T04:14:20.950Z,20.83
2017-07-30T04:15:20.934Z,20.9
2017-07-30T04:16:20.914Z,20.87
2017-07-30T04:17:20.587Z,20.85
2017-07-30T04:18:20.878Z,20.93
2017-07-30T04:19:20.886Z,20.93
2017-07-30T04:20:20.837Z,20.82
2017-07-30T04:21:20.820Z,20.9
2017-07-30T04:22:20.799Z,20.88
2017-07-30T04:23:20.777Z,20.88
2017-07-30T04:24:20.758Z,20.85
2017-07-30T04:25:20.744Z,20.93
2017-07-30T04:26:20.782Z,20.87
2017-07-30T04:27:20.703Z,20.91
2017-07-30T04:28:20.740Z,20.78
2017-07-30T04:29:20.675Z,20.75
2017-07-30T04:30:20.644Z,20.91
2017-07-30T04:31:20.624Z,20.91
2017-07-30T04:32:20.809Z,20.97
2017-07-30T04:33:20.588Z,20.85
2017-07-30T04:34:20.566Z,20.93
2017-07-30T04:35:20.551Z,20.93
2017-07-30T04:36:20.570Z,20.93
2017-07-30T04:37:20.513Z,20.93
2017-07-30T04:38:20.490Z,20.82
2017-07-30T04:39:20.478Z,21
2017-07-30T04:40:20.449Z,20.96
2017-07-30T04:41:20.696Z,20.97
2017-07-30T04:42:20.419Z,20.9
2017-07-30T04:43:20.397Z,20.93
2017-07-30T04:44:20.375Z,21.05
2017-07-30T04:45:20.357Z,20.98
2017-07-30T04:46:20.344Z,20.98
2017-07-30T04:47:20.324Z,20.97
2017-07-30T04:48:20.318Z,20.98
2017-07-30T04:49:20.278Z,21.06
2017-07-30T04:50:20.269Z,20.96
2017-07-30T04:51:20.238Z,21.05
2017-07-30T04:52:20.231Z,21.01
2017-07-30T04:53:20.212Z,21.01
2017-07-30T04:54:20.195Z,21.03
2017-07-30T04:55:20.175Z,21.06
2017-07-30T04:56:20.148Z,21.08
2017-07-30T04:57:20.127Z,21.05
2017-07-30T04:58:20.111Z,21.09
2017-07-30T04:59:20.096Z,21.06
2017-07-30T05:00:20.075Z,21.19
2017-07-30T05:01:20.060Z,21.11
2017-07-30T05:02:20.036Z,21.16
2017-07-30T05:03:20.027Z,21.13
2017-07-30T05:04:19.996Z,21.22
2017-07-30T05:05:19.983Z,21.27
2017-07-30T05:06:19.961Z,21.26
2017-07-30T05:07:19.991Z,21.24
2017-07-30T05:08:19.630Z,21.31
2017-07-30T05:09:19.904Z,21.33
2017-07-30T05:10:19.884Z,21.3
2017-07-30T05:11:19.871Z,21.28
2017-07-30T05:12:19.850Z,21.36
2017-07-30T05:13:19.831Z,21.33
2017-07-30T05:14:19.817Z,21.45
2017-07-30T05:15:19.540Z,21.38
2017-07-30T05:16:19.766Z,21.38
2017-07-30T05:17:19.753Z,21.53
2017-07-30T05:18:19.735Z,21.55
2017-07-30T05:19:19.724Z,21.53
2017-07-30T05:20:19.694Z,21.56
2017-07-30T05:21:19.725Z,21.61
2017-07-30T05:22:19.662Z,21.59
2017-07-30T05:23:19.643Z,21.73
2017-07-30T05:24:19.619Z,21.79
2017-07-30T05:25:19.821Z,21.77
2017-07-30T05:26:19.588Z,21.77
2017-07-30T05:27:19.572Z,21.82
2017-07-30T05:28:19.553Z,21.94
2017-07-30T05:29:19.534Z,21.9
2017-07-30T05:30:19.508Z,21.93
2017-07-30T05:31:19.496Z,21.93
2017-07-30T05:32:19.473Z,22.06
2017-07-30T05:33:19.151Z,22.11
2017-07-30T05:34:19.139Z,22.08
2017-07-30T05:35:19.621Z,22.14
2017-07-30T05:36:19.451Z,22.19
2017-07-30T05:37:19.388Z,22.15
2017-07-30T05:38:19.361Z,22.2
2017-07-30T05:39:19.346Z,22.27
2017-07-30T05:40:19.328Z,22.21
2017-07-30T05:41:19.319Z,22.27
2017-07-30T05:42:19.341Z,22.31
2017-07-30T05:43:19.271Z,22.3
2017-07-30T05:44:19.251Z,22.35
2017-07-30T05:45:19.233Z,22.3
2017-07-30T05:46:19.216Z,22.36
2017-07-30T05:47:19.204Z,22.35
2017-07-30T05:48:19.185Z,22.45
2017-07-30T05:49:19.176Z,22.46
2017-07-30T05:50:19.145Z,22.46
2017-07-30T05:51:19.131Z,22.57
2017-07-30T05:52:19.109Z,22.61
2017-07-30T05:53:19.087Z,22.63
2017-07-30T05:54:19.071Z,22.57
2017-07-30T05:55:18.826Z,22.59
2017-07-30T05:56:19.042Z,22.67
2017-07-30T05:57:19.026Z,22.67
2017-07-30T05:58:18.700Z,22.69
2017-07-30T05:59:18.984Z,22.69
2017-07-30T06:00:18.972Z,22.69
2017-07-30T06:01:18.639Z,22.67
2017-07-30T06:02:18.928Z,22.69
2017-07-30T06:03:18.947Z,22.69
2017-07-30T06:04:18.888Z,22.72
2017-07-30T06:05:18.878Z,22.69
2017-07-30T06:06:18.865Z,22.85
2017-07-30T06:07:19.046Z,22.88
2017-07-30T06:08:18.817Z,22.93
2017-07-30T06:09:18.799Z,23.04
2017-07-30T06:10:18.786Z,23.15
2017-07-30T06:11:18.771Z,23.29
2017-07-30T06:12:18.451Z,23.32
2017-07-30T06:13:18.433Z,23.38
2017-07-30T06:14:18.727Z,23.45
2017-07-30T06:15:18.696Z,23.53
2017-07-30T06:16:19.191Z,23.62
2017-07-30T06:17:18.665Z,23.69
2017-07-30T06:18:18.694Z,23.68
2017-07-30T06:19:18.659Z,23.78
2017-07-30T06:20:18.610Z,23.78
2017-07-30T06:21:18.619Z,23.77
2017-07-30T06:22:18.575Z,23.79
2017-07-30T06:23:18.556Z,23.75
2017-07-30T06:24:18.543Z,23.86
2017-07-30T06:25:18.534Z,23.89
2017-07-30T06:26:18.512Z,24.08
2017-07-30T06:27:18.490Z,24.14
2017-07-30T06:28:18.476Z,24.19
2017-07-30T06:29:18.456Z,24.23
2017-07-30T06:30:18.498Z,24.37
2017-07-30T06:31:18.433Z,24.55
2017-07-30T06:32:18.413Z,24.66
2017-07-30T06:33:18.097Z,24.75
2017-07-30T06:34:18.422Z,25.01
2017-07-30T06:35:18.360Z,25.34
2017-07-30T06:36:18.351Z,25.81
2017-07-30T06:37:18.543Z,26.27
2017-07-30T06:38:18.308Z,26.69
2017-07-30T06:40:18.291Z,27.38
2017-07-30T06:41:18.260Z,27.77
2017-07-30T06:42:18.249Z,27.87
2017-07-30T06:43:17.944Z,27.88
2017-07-30T06:44:17.940Z,27.81
2017-07-30T06:45:17.905Z,27.87
2017-07-30T06:46:18.195Z,28.05
2017-07-30T06:47:18.182Z,28.36
2017-07-30T06:48:18.170Z,28.64
2017-07-30T06:49:18.157Z,28.74
2017-07-30T06:50:18.151Z,28.95
2017-07-30T06:51:18.132Z,29.21
2017-07-30T06:52:18.119Z,29.14
2017-07-30T06:53:18.104Z,28.91
2017-07-30T06:54:18.101Z,28.8
2017-07-30T06:55:18.079Z,28.64
2017-07-30T06:56:17.777Z,28.54
2017-07-30T06:57:18.061Z,28.33
2017-07-30T06:58:18.050Z,28.27
2017-07-30T06:59:18.040Z,28.25
2017-07-30T07:00:18.027Z,28.2
2017-07-30T07:01:18.012Z,28.11
2017-07-30T07:02:17.997Z,27.96
2017-07-30T07:03:17.984Z,27.99
2017-07-30T07:04:17.978Z,28.05
2017-07-30T07:05:17.969Z,28.03
2017-07-30T07:06:17.948Z,28.17
2017-07-30T07:07:17.632Z,28.13
2017-07-30T07:08:17.943Z,28.02
2017-07-30T07:09:17.910Z,27.93
2017-07-30T07:10:17.901Z,27.91
2017-07-30T07:11:18.142Z,27.74
2017-07-30T07:12:17.882Z,27.53
2017-07-30T07:13:17.866Z,27.39
2017-07-30T07:14:17.850Z,27.24
2017-07-30T07:15:17.893Z,27.23
2017-07-30T07:16:17.868Z,27.12
2017-07-30T07:17:17.806Z,27.16
2017-07-30T07:18:17.805Z,27.2
2017-07-30T07:19:17.792Z,27.23
2017-07-30T07:20:17.778Z,27.45
2017-07-30T07:21:17.761Z,27.66
2017-07-30T07:22:17.758Z,27.74
2017-07-30T07:23:17.725Z,27.74
2017-07-30T07:24:17.717Z,27.72
2017-07-30T07:25:17.709Z,27.69
2017-07-30T07:26:17.696Z,27.59
2017-07-30T07:27:17.687Z,27.65
2017-07-30T07:28:17.669Z,27.61
2017-07-30T07:29:17.654Z,27.59
2017-07-30T07:30:17.650Z,27.5
2017-07-30T07:31:17.690Z,27.45
2017-07-30T07:32:17.666Z,27.45
2017-07-30T07:33:17.607Z,27.34
2017-07-30T07:34:17.606Z,27.31
2017-07-30T07:35:17.581Z,27.38
2017-07-30T07:36:17.560Z,27.4
2017-07-30T07:37:17.553Z,27.46
2017-07-30T07:38:17.536Z,27.68
2017-07-30T07:39:17.276Z,27.91
2017-07-30T07:40:17.508Z,28.05
2017-07-30T07:41:17.498Z,28.38
2017-07-30T07:42:17.486Z,28.8
2017-07-30T07:43:17.471Z,29.02
2017-07-30T07:44:17.466Z,29.14
2017-07-30T07:45:17.444Z,29.14
2017-07-30T07:46:17.434Z,29.26
2017-07-30T07:47:17.430Z,29.14
2017-07-30T07:48:17.421Z,29.02
2017-07-30T07:49:17.397Z,28.77
2017-07-30T07:50:17.404Z,28.3
2017-07-30T07:51:17.378Z,28.01
2017-07-30T07:52:17.360Z,27.81
2017-07-30T07:53:17.347Z,27.66
2017-07-30T07:54:17.353Z,27.48
2017-07-30T07:55:17.025Z,27.49
2017-07-30T07:56:17.318Z,27.3
2017-07-30T07:57:17.301Z,27.16
2017-07-30T07:58:17.288Z,27.15
2017-07-30T07:59:17.269Z,27.11
2017-07-30T08:00:17.267Z,27.01
2017-07-30T08:01:16.996Z,26.75
2017-07-30T08:02:17.238Z,26.59
2017-07-30T08:03:17.221Z,26.51
2017-07-30T08:04:17.203Z,26.32
2017-07-30T08:05:17.192Z,26.16
2017-07-30T08:06:16.891Z,26.16
2017-07-30T08:07:16.564Z,26.04
2017-07-30T08:08:17.154Z,26.03
2017-07-30T08:09:17.191Z,26.06
2017-07-30T08:10:16.824Z,26.16
2017-07-30T08:11:17.119Z,26.35
2017-07-30T08:12:17.099Z,26.49
2017-07-30T08:13:17.090Z,26.71
2017-07-30T08:14:17.131Z,26.73
2017-07-30T08:15:17.050Z,26.96
2017-07-30T08:16:17.046Z,27.38
2017-07-30T08:17:17.024Z,27.76
2017-07-30T08:18:17.025Z,27.96
2017-07-30T08:19:17.001Z,28.02
2017-07-30T08:20:16.982Z,28.09
2017-07-30T08:21:17.039Z,27.98
2017-07-30T08:22:16.965Z,27.87
2017-07-30T08:23:16.951Z,27.78
2017-07-30T08:24:16.929Z,27.83
2017-07-30T08:25:16.928Z,27.68
2017-07-30T08:26:16.960Z,27.52
2017-07-30T08:27:16.891Z,27.3
2017-07-30T08:28:16.885Z,27.2
2017-07-30T08:29:16.869Z,27.01
2017-07-30T08:30:16.554Z,26.91
2017-07-30T08:31:16.851Z,26.9
2017-07-30T08:32:16.887Z,26.93
2017-07-30T08:33:16.823Z,26.9
2017-07-30T08:34:16.503Z,26.97
2017-07-30T08:35:16.839Z,26.94
2017-07-30T08:36:16.794Z,26.86
2017-07-30T08:37:16.772Z,26.79
2017-07-30T08:38:16.750Z,26.78
2017-07-30T08:39:16.749Z,26.75
2017-07-30T08:40:16.718Z,26.76
2017-07-30T08:41:16.710Z,26.79
2017-07-30T08:42:16.693Z,27.03
2017-07-30T08:43:16.680Z,27.12
2017-07-30T08:44:16.667Z,27.16
2017-07-30T08:45:16.649Z,27.21
2017-07-30T08:46:16.337Z,27.2
2017-07-30T08:47:16.671Z,27.16
2017-07-30T08:48:16.612Z,27.11
2017-07-30T08:49:16.611Z,27.11
2017-07-30T08:50:16.589Z,27.02
2017-07-30T08:51:16.582Z,26.93
2017-07-30T08:52:16.568Z,26.91
2017-07-30T08:53:16.544Z,26.98
2017-07-30T08:54:16.554Z,27.13
2017-07-30T08:55:16.514Z,27.2
2017-07-30T08:56:16.200Z,27.16
2017-07-30T08:57:16.537Z,27.58
2017-07-30T08:58:16.475Z,27.55
2017-07-30T08:59:16.466Z,27.52
2017-07-30T09:00:16.447Z,27.62
2017-07-30T09:01:16.438Z,27.69
2017-07-30T09:02:16.125Z,27.87
2017-07-30T09:03:16.457Z,27.9
2017-07-30T09:04:16.397Z,27.84
2017-07-30T09:05:16.377Z,27.72
2017-07-30T09:06:16.426Z,27.48
2017-07-30T09:07:16.360Z,27.3
2017-07-30T09:08:16.346Z,27.2
2017-07-30T09:09:16.330Z,26.96
2017-07-30T09:10:16.012Z,26.75
2017-07-30T09:11:16.401Z,26.65
2017-07-30T09:12:16.289Z,26.49
2017-07-30T09:13:16.280Z,26.42
2017-07-30T09:14:16.253Z,26.27
2017-07-30T09:15:16.257Z,26.24
2017-07-30T09:16:15.930Z,26.19
2017-07-30T09:17:16.231Z,26.11
2017-07-30T09:18:16.200Z,25.98
2017-07-30T09:19:15.587Z,25.89
2017-07-30T09:20:15.877Z,25.89
2017-07-30T09:21:16.167Z,25.83
2017-07-30T09:22:16.178Z,25.78
2017-07-30T09:23:16.133Z,25.75
2017-07-30T09:24:16.119Z,25.75
2017-07-30T09:25:16.099Z,25.82
2017-07-30T09:26:16.085Z,25.79
2017-07-30T09:27:16.068Z,25.89
2017-07-30T09:28:16.097Z,25.89
2017-07-30T09:29:16.052Z,25.94
2017-07-30T09:30:16.018Z,26.01
2017-07-30T09:31:15.710Z,26.19
2017-07-30T09:32:15.691Z,26.06
2017-07-30T09:33:15.990Z,26.19
2017-07-30T09:34:15.970Z,26.28
2017-07-30T09:35:16.151Z,26.35
2017-07-30T09:36:15.934Z,26.29
2017-07-30T09:37:15.930Z,26.38
2017-07-30T09:38:15.905Z,26.51
2017-07-30T09:39:30.498Z,27.21
2017-07-30T09:40:15.575Z,27.52
2017-07-30T09:41:15.866Z,27.95
2017-07-30T09:42:15.854Z,28.25
2017-07-30T09:43:15.837Z,28.46
2017-07-30T09:44:15.822Z,28.79
2017-07-30T09:45:15.806Z,28.97
2017-07-30T09:46:15.497Z,29.25
2017-07-30T09:47:15.786Z,29.44
2017-07-30T09:48:15.777Z,29.64
2017-07-30T09:49:15.763Z,29.91
2017-07-30T09:50:15.759Z,30.37
2017-07-30T09:51:15.743Z,30.6
2017-07-30T09:52:15.784Z,30.67
2017-07-30T09:53:15.725Z,30.72
2017-07-30T09:54:15.108Z,30.56
2017-07-30T09:55:15.712Z,30.3
2017-07-30T09:56:15.443Z,29.97
2017-07-30T09:57:15.429Z,29.74
2017-07-30T09:58:15.679Z,29.47
2017-07-30T09:59:15.676Z,29.29
2017-07-30T10:00:15.652Z,29.1
2017-07-30T10:01:15.344Z,28.94
2017-07-30T10:02:15.678Z,28.82
2017-07-30T10:03:15.620Z,28.62
2017-07-30T10:04:15.662Z,28.62
2017-07-30T10:05:15.590Z,28.48
2017-07-30T10:06:15.583Z,28.35
2017-07-30T10:07:15.618Z,28.32
2017-07-30T10:08:15.609Z,28.28
2017-07-30T10:09:15.545Z,28.35
2017-07-30T10:10:15.544Z,28.52
2017-07-30T10:11:15.231Z,28.61
2017-07-30T10:12:15.514Z,28.7
2017-07-30T10:13:15.242Z,28.61
2017-07-30T10:14:15.493Z,28.39
2017-07-30T10:15:15.481Z,28.33
2017-07-30T10:16:15.469Z,28.23
2017-07-30T10:17:15.212Z,28.24
2017-07-30T10:18:15.438Z,28.3
2017-07-30T10:19:15.440Z,28.57
2017-07-30T10:20:15.421Z,28.58
2017-07-30T10:21:15.411Z,28.57
2017-07-30T10:22:15.403Z,28.58
2017-07-30T10:23:15.439Z,28.58
2017-07-30T10:24:15.385Z,28.57
2017-07-30T10:25:15.367Z,28.46
2017-07-30T10:26:15.351Z,28.42
2017-07-30T10:27:15.338Z,28.4
2017-07-30T10:28:15.330Z,28.43
2017-07-30T10:29:15.317Z,28.45
2017-07-30T10:30:15.316Z,28.55
2017-07-30T10:31:15.291Z,28.6
2017-07-30T10:32:15.284Z,28.55
2017-07-30T10:33:15.264Z,28.57
2017-07-30T10:34:15.259Z,28.42
2017-07-30T10:35:15.246Z,28.38
2017-07-30T10:36:15.240Z,28.33
2017-07-30T10:37:15.226Z,28.42
2017-07-30T10:38:15.208Z,28.25
2017-07-30T10:39:15.194Z,28.2
2017-07-30T10:40:15.190Z,28.03
2017-07-30T10:41:15.172Z,27.9
2017-07-30T10:42:15.159Z,27.8
2017-07-30T10:43:15.151Z,27.76
2017-07-30T10:44:15.145Z,27.63
2017-07-30T10:45:15.125Z,27.53
2017-07-30T10:46:15.114Z,27.46
2017-07-30T10:47:15.106Z,27.3
2017-07-30T10:48:15.083Z,27.23
2017-07-30T10:49:15.082Z,27.39
2017-07-30T10:50:15.058Z,27.49
2017-07-30T10:51:15.066Z,27.61
2017-07-30T10:52:15.037Z,27.65
2017-07-30T10:53:15.019Z,27.8
2017-07-30T10:54:15.004Z,27.88
2017-07-30T10:55:14.992Z,27.87
2017-07-30T10:56:14.986Z,27.99
2017-07-30T10:57:14.978Z,27.99
2017-07-30T10:58:15.004Z,28.08
2017-07-30T10:59:14.951Z,28.15
2017-07-30T11:00:14.927Z,28.23
2017-07-30T11:01:14.912Z,28.33
2017-07-30T11:02:14.901Z,28.57
2017-07-30T11:03:14.890Z,28.72
2017-07-30T11:04:14.884Z,28.91
2017-07-30T11:05:14.867Z,29.15
2017-07-30T11:06:14.850Z,29.17
2017-07-30T11:07:15.071Z,29.18
2017-07-30T11:08:14.830Z,29.3
2017-07-30T11:09:14.818Z,29.41
2017-07-30T11:10:14.807Z,29.54
2017-07-30T11:11:14.800Z,29.57
2017-07-30T11:12:14.834Z,29.63
2017-07-30T11:13:14.780Z,29.54
2017-07-30T11:14:14.970Z,29.55
2017-07-30T11:15:14.755Z,29.51
2017-07-30T11:16:14.740Z,29.37
2017-07-30T11:17:14.746Z,29.37
2017-07-30T11:18:14.718Z,29.3
2017-07-30T11:19:14.716Z,29.27
2017-07-30T11:20:14.694Z,29.27
2017-07-30T11:21:14.688Z,29.11
2017-07-30T11:22:14.677Z,29.27
2017-07-30T11:23:14.668Z,29.35
2017-07-30T11:24:14.653Z,29.27
2017-07-30T11:25:14.336Z,29.27
2017-07-30T11:26:14.676Z,29.23
2017-07-30T11:27:14.312Z,29.2
2017-07-30T11:28:14.605Z,29.08
2017-07-30T11:29:14.597Z,28.95
2017-07-30T11:30:14.581Z,28.92
2017-07-30T11:31:14.269Z,28.83
2017-07-30T11:32:14.553Z,28.83
2017-07-30T11:33:14.553Z,28.79
2017-07-30T11:34:14.534Z,28.6
2017-07-30T11:35:14.219Z,28.67
2017-07-30T11:36:14.522Z,28.65
2017-07-30T11:37:14.494Z,28.64
2017-07-30T11:38:14.482Z,28.65
2017-07-30T11:39:14.470Z,28.67
2017-07-30T11:40:14.463Z,28.55
2017-07-30T11:41:14.448Z,28.6
2017-07-30T11:42:14.134Z,28.64
2017-07-30T11:43:14.427Z,28.55
2017-07-30T11:44:14.408Z,28.51
2017-07-30T11:45:14.397Z,28.54
2017-07-30T11:46:14.383Z,28.5
2017-07-30T11:47:14.374Z,28.43
2017-07-30T11:48:14.367Z,28.45
2017-07-30T11:49:14.347Z,28.4
2017-07-30T11:50:14.344Z,28.4
2017-07-30T11:51:14.317Z,28.35
2017-07-30T11:52:14.314Z,28.36
2017-07-30T11:53:14.345Z,28.32
2017-07-30T11:54:14.280Z,28.33
2017-07-30T11:55:14.282Z,28.27
2017-07-30T11:56:14.258Z,28.38
2017-07-30T11:57:14.238Z,28.27
2017-07-30T11:58:14.225Z,28.18
2017-07-30T11:59:14.212Z,28.14
2017-07-30T12:00:14.204Z,27.98
2017-07-30T12:01:14.189Z,28.02
2017-07-30T12:02:13.878Z,27.9
2017-07-30T12:03:14.157Z,27.87
2017-07-30T12:04:13.845Z,27.81
2017-07-30T12:05:13.879Z,27.83
2017-07-30T12:06:14.325Z,27.74
2017-07-30T12:07:14.096Z,27.71
2017-07-30T12:08:13.783Z,27.68
2017-07-30T12:09:13.782Z,27.62
2017-07-30T12:10:14.054Z,27.52
2017-07-30T12:11:14.039Z,27.5
2017-07-30T12:12:13.753Z,27.49
2017-07-30T12:13:14.214Z,27.52
2017-07-30T12:14:13.750Z,27.5
2017-07-30T12:15:13.994Z,27.5
2017-07-30T12:16:13.965Z,27.45
2017-07-30T12:17:14.254Z,27.49
2017-07-30T12:18:13.953Z,27.52
2017-07-30T12:19:13.975Z,27.48
2017-07-30T12:21:13.893Z,27.46
2017-07-30T12:22:13.874Z,27.52
2017-07-30T12:23:13.965Z,27.53
2017-07-30T12:24:13.549Z,27.68
2017-07-30T12:25:13.836Z,27.59
2017-07-30T12:26:13.834Z,27.68
2017-07-30T12:27:13.805Z,27.72
2017-07-30T12:28:13.786Z,27.77
2017-07-30T12:29:13.795Z,27.8
2017-07-30T12:30:13.766Z,27.87
2017-07-30T12:31:13.997Z,27.95
2017-07-30T12:32:13.733Z,27.87
2017-07-30T12:33:13.708Z,27.98
2017-07-30T12:34:13.697Z,27.91
2017-07-30T12:35:13.684Z,27.84
2017-07-30T12:36:13.703Z,27.84
2017-07-30T12:37:13.667Z,27.84
2017-07-30T12:38:13.649Z,27.86
2017-07-30T12:39:13.631Z,27.88
2017-07-30T12:40:13.623Z,27.9
2017-07-30T12:41:13.807Z,27.93
2017-07-30T12:42:13.594Z,27.88
2017-07-30T12:43:13.578Z,27.9
2017-07-30T12:44:13.563Z,27.84
2017-07-30T12:45:13.544Z,27.84
2017-07-30T12:46:13.574Z,27.91
2017-07-30T12:47:13.769Z,27.88
2017-07-30T12:48:13.517Z,27.88
2017-07-30T12:49:13.487Z,27.93
2017-07-30T12:50:13.481Z,27.93
2017-07-30T12:51:13.473Z,27.88
2017-07-30T12:52:13.473Z,27.84
2017-07-30T12:53:13.441Z,27.84
2017-07-30T12:54:13.419Z,27.99
2017-07-30T12:55:13.406Z,27.96
2017-07-30T12:56:13.396Z,27.98
2017-07-30T12:57:13.379Z,27.88
2017-07-30T12:58:13.369Z,27.88